sensor_id;sensor_type;location;lat;lon;timestamp;P1;durP1;ratioP1;P2;durP2;ratioP2
35257;SDS011;21385;50.878;8.050;2023-04-16T00:01:37;5.75;;;5.25;;
35257;SDS011;21385;50.878;8.050;2023-04-16T00:04:03;10.63;;;5.40;;
35257;SDS011;21385;50.878;8.050;2023-04-16T00:06:29;5.82;;;5.28;;
35257;SDS011;21385;50.878;8.050;2023-04-16T00:08:57;7.05;;;4.68;;
35257;SDS011;21385;50.878;8.050;2023-04-16T00:11:23;5.43;;;4.45;;
35257;SDS011;21385;50.878;8.050;2023-04-16T00:13:49;9.32;;;3.95;;
35257;SDS011;21385;50.878;8.050;2023-04-16T00:16:15;6.80;;;5.35;;
35257;SDS011;21385;50.878;8.050;2023-04-16T00:18:40;4.80;;;3.72;;
35257;SDS011;21385;50.878;8.050;2023-04-16T00:21:06;7.78;;;4.05;;
35257;SDS011;21385;50.878;8.050;2023-04-16T00:23:32;6.85;;;5.32;;
35257;SDS011;21385;50.878;8.050;2023-04-16T00:25:57;12.57;;;4.68;;
35257;SDS011;21385;50.878;8.050;2023-04-16T00:28:26;6.47;;;5.25;;
35257;SDS011;21385;50.878;8.050;2023-04-16T00:30:52;5.28;;;4.80;;
35257;SDS011;21385;50.878;8.050;2023-04-16T00:33:18;7.80;;;4.43;;
35257;SDS011;21385;50.878;8.050;2023-04-16T00:35:44;5.05;;;4.25;;
35257;SDS011;21385;50.878;8.050;2023-04-16T00:38:11;7.40;;;4.90;;
35257;SDS011;21385;50.878;8.050;2023-04-16T00:40:37;5.88;;;5.03;;
35257;SDS011;21385;50.878;8.050;2023-04-16T00:43:03;5.75;;;5.25;;
35257;SDS011;21385;50.878;8.050;2023-04-16T00:45:29;8.90;;;5.30;;
35257;SDS011;21385;50.878;8.050;2023-04-16T00:47:55;6.25;;;5.03;;
35257;SDS011;21385;50.878;8.050;2023-04-16T00:50:22;8.57;;;5.28;;
35257;SDS011;21385;50.878;8.050;2023-04-16T00:52:48;6.25;;;5.07;;
35257;SDS011;21385;50.878;8.050;2023-04-16T00:55:14;13.00;;;3.90;;
35257;SDS011;21385;50.878;8.050;2023-04-16T00:57:42;7.38;;;5.18;;
35257;SDS011;21385;50.878;8.050;2023-04-16T01:00:09;9.65;;;5.50;;
35257;SDS011;21385;50.878;8.050;2023-04-16T01:02:36;8.77;;;4.80;;
35257;SDS011;21385;50.878;8.050;2023-04-16T01:05:02;9.95;;;5.30;;
35257;SDS011;21385;50.878;8.050;2023-04-16T01:07:29;6.25;;;4.38;;
35257;SDS011;21385;50.878;8.050;2023-04-16T01:09:55;9.13;;;4.03;;
35257;SDS011;21385;50.878;8.050;2023-04-16T01:12:21;5.57;;;4.68;;
35257;SDS011;21385;50.878;8.050;2023-04-16T01:14:48;5.82;;;4.32;;
35257;SDS011;21385;50.878;8.050;2023-04-16T01:17:14;6.80;;;4.13;;
35257;SDS011;21385;50.878;8.050;2023-04-16T01:19:40;5.82;;;4.85;;
35257;SDS011;21385;50.878;8.050;2023-04-16T01:22:06;4.32;;;3.75;;
35257;SDS011;21385;50.878;8.050;2023-04-16T01:24:32;3.88;;;3.53;;
35257;SDS011;21385;50.878;8.050;2023-04-16T01:26:58;4.38;;;3.97;;
35257;SDS011;21385;50.878;8.050;2023-04-16T01:29:25;6.00;;;4.45;;
35257;SDS011;21385;50.878;8.050;2023-04-16T01:31:51;5.47;;;4.57;;
35257;SDS011;21385;50.878;8.050;2023-04-16T01:34:16;7.72;;;4.47;;
35257;SDS011;21385;50.878;8.050;2023-04-16T01:36:42;4.53;;;3.55;;
35257;SDS011;21385;50.878;8.050;2023-04-16T01:39:08;3.35;;;2.75;;
35257;SDS011;21385;50.878;8.050;2023-04-16T01:44:05;5.60;;;3.78;;
35257;SDS011;21385;50.878;8.050;2023-04-16T01:46:31;5.28;;;3.13;;
35257;SDS011;21385;50.878;8.050;2023-04-16T01:48:59;3.92;;;3.35;;
35257;SDS011;21385;50.878;8.050;2023-04-16T01:51:26;4.55;;;3.15;;
35257;SDS011;21385;50.878;8.050;2023-04-16T01:53:52;3.42;;;2.85;;
35257;SDS011;21385;50.878;8.050;2023-04-16T01:56:18;5.97;;;3.75;;
35257;SDS011;21385;50.878;8.050;2023-04-16T01:58:44;5.18;;;3.50;;
35257;SDS011;21385;50.878;8.050;2023-04-16T02:01:11;3.40;;;3.10;;
35257;SDS011;21385;50.878;8.050;2023-04-16T02:03:37;6.70;;;2.92;;
35257;SDS011;21385;50.878;8.050;2023-04-16T02:06:03;4.68;;;2.92;;
35257;SDS011;21385;50.878;8.050;2023-04-16T02:08:29;12.50;;;3.25;;
35257;SDS011;21385;50.878;8.050;2023-04-16T02:10:55;3.53;;;2.83;;
35257;SDS011;21385;50.878;8.050;2023-04-16T02:13:21;7.00;;;3.42;;
35257;SDS011;21385;50.878;8.050;2023-04-16T02:15:49;4.63;;;2.92;;
35257;SDS011;21385;50.878;8.050;2023-04-16T02:18:16;3.42;;;2.67;;
35257;SDS011;21385;50.878;8.050;2023-04-16T02:20:42;8.75;;;2.13;;
35257;SDS011;21385;50.878;8.050;2023-04-16T02:23:08;1.95;;;1.60;;
35257;SDS011;21385;50.878;8.050;2023-04-16T02:25:40;2.42;;;1.73;;
35257;SDS011;21385;50.878;8.050;2023-04-16T02:28:10;2.40;;;2.20;;
35257;SDS011;21385;50.878;8.050;2023-04-16T02:30:38;3.05;;;2.60;;
35257;SDS011;21385;50.878;8.050;2023-04-16T02:33:05;2.55;;;2.35;;
35257;SDS011;21385;50.878;8.050;2023-04-16T02:35:33;1.85;;;1.60;;
35257;SDS011;21385;50.878;8.050;2023-04-16T02:37:59;2.60;;;2.00;;
35257;SDS011;21385;50.878;8.050;2023-04-16T02:40:26;3.10;;;2.80;;
35257;SDS011;21385;50.878;8.050;2023-04-16T02:42:52;4.35;;;3.42;;
35257;SDS011;21385;50.878;8.050;2023-04-16T02:45:18;3.05;;;2.65;;
35257;SDS011;21385;50.878;8.050;2023-04-16T02:47:44;8.85;;;2.72;;
35257;SDS011;21385;50.878;8.050;2023-04-16T02:50:10;8.32;;;2.95;;
35257;SDS011;21385;50.878;8.050;2023-04-16T02:52:36;2.92;;;2.53;;
35257;SDS011;21385;50.878;8.050;2023-04-16T02:55:02;4.90;;;3.10;;
35257;SDS011;21385;50.878;8.050;2023-04-16T02:57:28;5.50;;;3.83;;
35257;SDS011;21385;50.878;8.050;2023-04-16T02:59:53;3.42;;;2.33;;
35257;SDS011;21385;50.878;8.050;2023-04-16T03:02:19;5.57;;;3.45;;
35257;SDS011;21385;50.878;8.050;2023-04-16T03:04:45;5.43;;;3.83;;
35257;SDS011;21385;50.878;8.050;2023-04-16T03:07:10;3.45;;;3.05;;
35257;SDS011;21385;50.878;8.050;2023-04-16T03:09:37;5.55;;;3.75;;
35257;SDS011;21385;50.878;8.050;2023-04-16T03:12:03;3.70;;;3.35;;
35257;SDS011;21385;50.878;8.050;2023-04-16T03:14:29;4.85;;;3.83;;
35257;SDS011;21385;50.878;8.050;2023-04-16T03:16:55;5.75;;;3.75;;
35257;SDS011;21385;50.878;8.050;2023-04-16T03:19:21;3.83;;;3.25;;
35257;SDS011;21385;50.878;8.050;2023-04-16T03:21:47;5.43;;;3.72;;
35257;SDS011;21385;50.878;8.050;2023-04-16T03:24:13;5.45;;;4.93;;
35257;SDS011;21385;50.878;8.050;2023-04-16T03:26:38;4.65;;;4.25;;
35257;SDS011;21385;50.878;8.050;2023-04-16T03:29:04;7.72;;;4.75;;
35257;SDS011;21385;50.878;8.050;2023-04-16T03:31:30;6.70;;;4.60;;
35257;SDS011;21385;50.878;8.050;2023-04-16T03:33:56;4.47;;;3.50;;
35257;SDS011;21385;50.878;8.050;2023-04-16T03:36:21;5.45;;;4.22;;
35257;SDS011;21385;50.878;8.050;2023-04-16T03:38:48;5.78;;;4.40;;
35257;SDS011;21385;50.878;8.050;2023-04-16T03:41:14;5.28;;;4.68;;
35257;SDS011;21385;50.878;8.050;2023-04-16T03:43:39;6.00;;;5.10;;
35257;SDS011;21385;50.878;8.050;2023-04-16T03:46:05;10.93;;;5.13;;
35257;SDS011;21385;50.878;8.050;2023-04-16T03:48:31;15.40;;;5.15;;
35257;SDS011;21385;50.878;8.050;2023-04-16T03:50:56;7.63;;;4.47;;
35257;SDS011;21385;50.878;8.050;2023-04-16T03:53:22;9.35;;;4.65;;
35257;SDS011;21385;50.878;8.050;2023-04-16T03:55:49;4.55;;;3.50;;
35257;SDS011;21385;50.878;8.050;2023-04-16T03:58:18;5.68;;;4.95;;
35257;SDS011;21385;50.878;8.050;2023-04-16T04:00:43;6.47;;;4.30;;
35257;SDS011;21385;50.878;8.050;2023-04-16T04:03:10;7.75;;;4.35;;
35257;SDS011;21385;50.878;8.050;2023-04-16T04:05:36;3.80;;;3.50;;
35257;SDS011;21385;50.878;8.050;2023-04-16T04:08:05;7.78;;;5.35;;
35257;SDS011;21385;50.878;8.050;2023-04-16T04:10:32;5.00;;;4.57;;
35257;SDS011;21385;50.878;8.050;2023-04-16T04:12:58;7.63;;;4.80;;
35257;SDS011;21385;50.878;8.050;2023-04-16T04:15:25;7.63;;;5.13;;
35257;SDS011;21385;50.878;8.050;2023-04-16T04:17:51;6.72;;;5.22;;
35257;SDS011;21385;50.878;8.050;2023-04-16T04:20:16;4.95;;;4.45;;
35257;SDS011;21385;50.878;8.050;2023-04-16T04:22:43;6.60;;;5.20;;
35257;SDS011;21385;50.878;8.050;2023-04-16T04:25:09;8.07;;;6.07;;
35257;SDS011;21385;50.878;8.050;2023-04-16T04:27:35;6.32;;;4.07;;
35257;SDS011;21385;50.878;8.050;2023-04-16T04:30:01;7.07;;;5.05;;
35257;SDS011;21385;50.878;8.050;2023-04-16T04:32:28;6.72;;;5.03;;
35257;SDS011;21385;50.878;8.050;2023-04-16T04:34:55;4.57;;;4.18;;
35257;SDS011;21385;50.878;8.050;2023-04-16T04:37:21;3.88;;;3.47;;
35257;SDS011;21385;50.878;8.050;2023-04-16T04:39:46;4.93;;;4.43;;
35257;SDS011;21385;50.878;8.050;2023-04-16T04:42:12;4.45;;;3.83;;
35257;SDS011;21385;50.878;8.050;2023-04-16T04:44:38;4.30;;;3.78;;
35257;SDS011;21385;50.878;8.050;2023-04-16T04:47:03;5.15;;;4.65;;
35257;SDS011;21385;50.878;8.050;2023-04-16T04:49:29;4.90;;;4.45;;
35257;SDS011;21385;50.878;8.050;2023-04-16T04:51:55;5.60;;;4.70;;
35257;SDS011;21385;50.878;8.050;2023-04-16T04:54:24;3.78;;;3.40;;
35257;SDS011;21385;50.878;8.050;2023-04-16T04:56:52;6.18;;;4.30;;
35257;SDS011;21385;50.878;8.050;2023-04-16T04:59:19;4.60;;;3.97;;
35257;SDS011;21385;50.878;8.050;2023-04-16T05:01:45;4.97;;;3.78;;
35257;SDS011;21385;50.878;8.050;2023-04-16T05:04:11;5.28;;;4.18;;
35257;SDS011;21385;50.878;8.050;2023-04-16T05:06:36;4.55;;;3.88;;
35257;SDS011;21385;50.878;8.050;2023-04-16T05:09:02;5.45;;;3.80;;
35257;SDS011;21385;50.878;8.050;2023-04-16T05:11:28;5.18;;;3.92;;
35257;SDS011;21385;50.878;8.050;2023-04-16T05:13:54;4.97;;;4.38;;
35257;SDS011;21385;50.878;8.050;2023-04-16T05:16:20;6.35;;;4.15;;
35257;SDS011;21385;50.878;8.050;2023-04-16T05:18:45;7.90;;;4.88;;
35257;SDS011;21385;50.878;8.050;2023-04-16T05:21:11;8.32;;;5.03;;
35257;SDS011;21385;50.878;8.050;2023-04-16T05:23:37;6.03;;;4.57;;
35257;SDS011;21385;50.878;8.050;2023-04-16T05:26:02;5.22;;;4.38;;
35257;SDS011;21385;50.878;8.050;2023-04-16T05:28:28;9.20;;;4.82;;
35257;SDS011;21385;50.878;8.050;2023-04-16T05:30:54;10.00;;;4.22;;
35257;SDS011;21385;50.878;8.050;2023-04-16T05:33:20;8.18;;;5.22;;
35257;SDS011;21385;50.878;8.050;2023-04-16T05:35:46;4.70;;;3.97;;
35257;SDS011;21385;50.878;8.050;2023-04-16T05:38:12;6.47;;;5.00;;
35257;SDS011;21385;50.878;8.050;2023-04-16T05:40:37;6.95;;;5.57;;
35257;SDS011;21385;50.878;8.050;2023-04-16T05:43:03;5.53;;;4.68;;
35257;SDS011;21385;50.878;8.050;2023-04-16T05:45:28;6.88;;;5.80;;
35257;SDS011;21385;50.878;8.050;2023-04-16T05:47:57;13.32;;;7.13;;
35257;SDS011;21385;50.878;8.050;2023-04-16T05:50:22;9.73;;;5.90;;
35257;SDS011;21385;50.878;8.050;2023-04-16T05:52:48;6.82;;;5.47;;
35257;SDS011;21385;50.878;8.050;2023-04-16T05:55:14;9.57;;;5.65;;
35257;SDS011;21385;50.878;8.050;2023-04-16T05:57:39;10.13;;;5.32;;
35257;SDS011;21385;50.878;8.050;2023-04-16T06:00:05;7.38;;;5.72;;
35257;SDS011;21385;50.878;8.050;2023-04-16T06:02:32;5.60;;;4.63;;
35257;SDS011;21385;50.878;8.050;2023-04-16T06:04:57;9.65;;;6.40;;
35257;SDS011;21385;50.878;8.050;2023-04-16T06:07:23;16.50;;;9.85;;
35257;SDS011;21385;50.878;8.050;2023-04-16T06:09:49;7.40;;;6.68;;
35257;SDS011;21385;50.878;8.050;2023-04-16T06:12:14;8.18;;;6.78;;
35257;SDS011;21385;50.878;8.050;2023-04-16T06:14:40;18.48;;;11.18;;
35257;SDS011;21385;50.878;8.050;2023-04-16T06:17:06;7.93;;;6.65;;
35257;SDS011;21385;50.878;8.050;2023-04-16T06:19:31;16.38;;;7.72;;
35257;SDS011;21385;50.878;8.050;2023-04-16T06:21:57;10.38;;;6.70;;
35257;SDS011;21385;50.878;8.050;2023-04-16T06:24:23;7.53;;;6.28;;
35257;SDS011;21385;50.878;8.050;2023-04-16T06:26:49;8.25;;;6.82;;
35257;SDS011;21385;50.878;8.050;2023-04-16T06:29:14;10.18;;;7.22;;
35257;SDS011;21385;50.878;8.050;2023-04-16T06:31:40;7.00;;;6.28;;
35257;SDS011;21385;50.878;8.050;2023-04-16T06:34:06;8.43;;;6.88;;
35257;SDS011;21385;50.878;8.050;2023-04-16T06:36:31;9.95;;;7.55;;
35257;SDS011;21385;50.878;8.050;2023-04-16T06:38:57;13.57;;;7.85;;
35257;SDS011;21385;50.878;8.050;2023-04-16T06:41:23;9.25;;;6.65;;
35257;SDS011;21385;50.878;8.050;2023-04-16T06:43:50;8.68;;;7.85;;
35257;SDS011;21385;50.878;8.050;2023-04-16T06:46:16;11.07;;;7.63;;
35257;SDS011;21385;50.878;8.050;2023-04-16T06:48:42;8.77;;;5.40;;
35257;SDS011;21385;50.878;8.050;2023-04-16T06:51:07;6.90;;;6.15;;
35257;SDS011;21385;50.878;8.050;2023-04-16T06:53:33;8.20;;;6.80;;
35257;SDS011;21385;50.878;8.050;2023-04-16T06:56:01;8.90;;;8.05;;
35257;SDS011;21385;50.878;8.050;2023-04-16T06:58:27;12.23;;;8.07;;
35257;SDS011;21385;50.878;8.050;2023-04-16T07:00:53;9.55;;;7.93;;
35257;SDS011;21385;50.878;8.050;2023-04-16T07:03:18;16.33;;;6.50;;
35257;SDS011;21385;50.878;8.050;2023-04-16T07:05:44;11.73;;;6.43;;
35257;SDS011;21385;50.878;8.050;2023-04-16T07:08:10;10.32;;;6.80;;
35257;SDS011;21385;50.878;8.050;2023-04-16T07:10:35;9.98;;;6.38;;
35257;SDS011;21385;50.878;8.050;2023-04-16T07:13:01;9.15;;;6.35;;
35257;SDS011;21385;50.878;8.050;2023-04-16T07:15:27;8.25;;;5.65;;
35257;SDS011;21385;50.878;8.050;2023-04-16T07:17:53;8.82;;;5.85;;
35257;SDS011;21385;50.878;8.050;2023-04-16T07:20:19;11.48;;;7.15;;
35257;SDS011;21385;50.878;8.050;2023-04-16T07:22:45;10.55;;;6.47;;
35257;SDS011;21385;50.878;8.050;2023-04-16T07:25:11;17.02;;;7.53;;
35257;SDS011;21385;50.878;8.050;2023-04-16T07:27:36;6.82;;;6.00;;
35257;SDS011;21385;50.878;8.050;2023-04-16T07:30:02;10.77;;;6.68;;
35257;SDS011;21385;50.878;8.050;2023-04-16T07:32:29;10.52;;;6.72;;
35257;SDS011;21385;50.878;8.050;2023-04-16T07:34:55;8.73;;;6.65;;
35257;SDS011;21385;50.878;8.050;2023-04-16T07:37:21;6.45;;;5.93;;
35257;SDS011;21385;50.878;8.050;2023-04-16T07:39:46;9.98;;;7.65;;
35257;SDS011;21385;50.878;8.050;2023-04-16T07:42:12;14.90;;;6.90;;
35257;SDS011;21385;50.878;8.050;2023-04-16T07:44:38;8.43;;;7.47;;
35257;SDS011;21385;50.878;8.050;2023-04-16T07:47:04;10.07;;;8.35;;
35257;SDS011;21385;50.878;8.050;2023-04-16T07:49:29;8.77;;;7.38;;
35257;SDS011;21385;50.878;8.050;2023-04-16T07:51:55;11.48;;;8.23;;
35257;SDS011;21385;50.878;8.050;2023-04-16T07:54:21;13.05;;;8.55;;
35257;SDS011;21385;50.878;8.050;2023-04-16T07:56:47;13.75;;;8.55;;
35257;SDS011;21385;50.878;8.050;2023-04-16T07:59:12;9.70;;;8.23;;
35257;SDS011;21385;50.878;8.050;2023-04-16T08:01:38;15.38;;;9.40;;
35257;SDS011;21385;50.878;8.050;2023-04-16T08:04:04;9.27;;;7.82;;
35257;SDS011;21385;50.878;8.050;2023-04-16T08:06:29;10.82;;;8.10;;
35257;SDS011;21385;50.878;8.050;2023-04-16T08:08:55;13.20;;;9.20;;
35257;SDS011;21385;50.878;8.050;2023-04-16T08:11:21;12.98;;;8.82;;
35257;SDS011;21385;50.878;8.050;2023-04-16T08:13:47;12.43;;;7.85;;
35257;SDS011;21385;50.878;8.050;2023-04-16T08:16:13;19.45;;;8.70;;
35257;SDS011;21385;50.878;8.050;2023-04-16T08:18:39;12.07;;;9.82;;
35257;SDS011;21385;50.878;8.050;2023-04-16T08:21:04;11.30;;;8.00;;
35257;SDS011;21385;50.878;8.050;2023-04-16T08:23:30;11.27;;;8.18;;
35257;SDS011;21385;50.878;8.050;2023-04-16T08:25:56;14.52;;;8.18;;
35257;SDS011;21385;50.878;8.050;2023-04-16T08:28:22;10.40;;;8.88;;
35257;SDS011;21385;50.878;8.050;2023-04-16T08:30:48;13.40;;;9.57;;
35257;SDS011;21385;50.878;8.050;2023-04-16T08:33:13;12.55;;;9.57;;
35257;SDS011;21385;50.878;8.050;2023-04-16T08:35:39;8.52;;;7.63;;
35257;SDS011;21385;50.878;8.050;2023-04-16T08:38:05;13.40;;;9.00;;
35257;SDS011;21385;50.878;8.050;2023-04-16T08:40:31;10.88;;;8.98;;
35257;SDS011;21385;50.878;8.050;2023-04-16T08:43:06;14.40;;;8.63;;
35257;SDS011;21385;50.878;8.050;2023-04-16T08:45:37;12.32;;;9.05;;
35257;SDS011;21385;50.878;8.050;2023-04-16T08:48:06;12.82;;;7.65;;
35257;SDS011;21385;50.878;8.050;2023-04-16T08:50:35;11.27;;;9.95;;
35257;SDS011;21385;50.878;8.050;2023-04-16T08:53:04;19.70;;;9.85;;
35257;SDS011;21385;50.878;8.050;2023-04-16T08:55:34;10.00;;;8.63;;
35257;SDS011;21385;50.878;8.050;2023-04-16T09:00:31;9.50;;;7.38;;
35257;SDS011;21385;50.878;8.050;2023-04-16T09:02:58;15.73;;;7.97;;
35257;SDS011;21385;50.878;8.050;2023-04-16T09:05:24;10.10;;;7.80;;
35257;SDS011;21385;50.878;8.050;2023-04-16T09:07:52;12.55;;;8.45;;
35257;SDS011;21385;50.878;8.050;2023-04-16T09:10:19;11.43;;;9.43;;
35257;SDS011;21385;50.878;8.050;2023-04-16T09:12:45;9.65;;;8.07;;
35257;SDS011;21385;50.878;8.050;2023-04-16T09:15:12;11.75;;;9.15;;
35257;SDS011;21385;50.878;8.050;2023-04-16T09:17:38;9.85;;;8.85;;
35257;SDS011;21385;50.878;8.050;2023-04-16T09:20:05;9.93;;;8.18;;
35257;SDS011;21385;50.878;8.050;2023-04-16T09:22:33;11.60;;;7.80;;
35257;SDS011;21385;50.878;8.050;2023-04-16T09:24:59;9.98;;;8.02;;
35257;SDS011;21385;50.878;8.050;2023-04-16T09:27:25;11.52;;;8.20;;
35257;SDS011;21385;50.878;8.050;2023-04-16T09:29:51;9.73;;;7.85;;
35257;SDS011;21385;50.878;8.050;2023-04-16T09:32:19;11.95;;;8.65;;
35257;SDS011;21385;50.878;8.050;2023-04-16T09:34:54;13.85;;;8.77;;
35257;SDS011;21385;50.878;8.050;2023-04-16T09:37:29;11.25;;;8.20;;
35257;SDS011;21385;50.878;8.050;2023-04-16T09:39:56;15.85;;;8.68;;
35257;SDS011;21385;50.878;8.050;2023-04-16T09:42:27;8.57;;;7.78;;
35257;SDS011;21385;50.878;8.050;2023-04-16T09:44:55;16.73;;;8.48;;
35257;SDS011;21385;50.878;8.050;2023-04-16T09:47:22;13.40;;;9.45;;
35257;SDS011;21385;50.878;8.050;2023-04-16T09:49:49;9.38;;;8.25;;
35257;SDS011;21385;50.878;8.050;2023-04-16T09:52:19;21.58;;;8.85;;
35257;SDS011;21385;50.878;8.050;2023-04-16T09:54:50;12.43;;;7.72;;
35257;SDS011;21385;50.878;8.050;2023-04-16T09:57:20;8.80;;;7.72;;
35257;SDS011;21385;50.878;8.050;2023-04-16T09:59:48;10.32;;;7.93;;
35257;SDS011;21385;50.878;8.050;2023-04-16T10:02:26;12.73;;;7.97;;
35257;SDS011;21385;50.878;8.050;2023-04-16T10:04:53;9.65;;;7.60;;
35257;SDS011;21385;50.878;8.050;2023-04-16T10:07:19;9.85;;;8.35;;
35257;SDS011;21385;50.878;8.050;2023-04-16T10:09:46;10.77;;;7.57;;
35257;SDS011;21385;50.878;8.050;2023-04-16T10:12:13;10.65;;;7.72;;
35257;SDS011;21385;50.878;8.050;2023-04-16T10:14:40;10.30;;;8.07;;
35257;SDS011;21385;50.878;8.050;2023-04-16T10:17:07;12.38;;;9.38;;
35257;SDS011;21385;50.878;8.050;2023-04-16T10:19:33;16.65;;;9.45;;
35257;SDS011;21385;50.878;8.050;2023-04-16T10:22:00;16.42;;;7.95;;
35257;SDS011;21385;50.878;8.050;2023-04-16T10:24:27;10.20;;;8.63;;
35257;SDS011;21385;50.878;8.050;2023-04-16T10:26:54;12.77;;;8.27;;
35257;SDS011;21385;50.878;8.050;2023-04-16T10:29:20;9.93;;;7.22;;
35257;SDS011;21385;50.878;8.050;2023-04-16T10:31:47;10.07;;;7.57;;
35257;SDS011;21385;50.878;8.050;2023-04-16T10:34:14;15.07;;;9.02;;
35257;SDS011;21385;50.878;8.050;2023-04-16T10:36:40;10.05;;;7.57;;
35257;SDS011;21385;50.878;8.050;2023-04-16T10:39:10;9.55;;;8.27;;
35257;SDS011;21385;50.878;8.050;2023-04-16T10:41:37;9.57;;;7.07;;
35257;SDS011;21385;50.878;8.050;2023-04-16T10:44:06;11.68;;;8.82;;
35257;SDS011;21385;50.878;8.050;2023-04-16T10:51:54;14.77;;;7.38;;
35257;SDS011;21385;50.878;8.050;2023-04-16T10:54:36;12.88;;;7.55;;
35257;SDS011;21385;50.878;8.050;2023-04-16T10:57:03;12.88;;;8.07;;
35257;SDS011;21385;50.878;8.050;2023-04-16T10:59:31;11.45;;;8.82;;
35257;SDS011;21385;50.878;8.050;2023-04-16T11:01:59;8.63;;;7.72;;
35257;SDS011;21385;50.878;8.050;2023-04-16T11:04:37;6.75;;;6.07;;
35257;SDS011;21385;50.878;8.050;2023-04-16T11:12:36;21.65;;;9.82;;
35257;SDS011;21385;50.878;8.050;2023-04-16T11:15:04;11.30;;;7.63;;
35257;SDS011;21385;50.878;8.050;2023-04-16T11:17:44;8.57;;;7.00;;
35257;SDS011;21385;50.878;8.050;2023-04-16T11:20:26;16.45;;;9.00;;
35257;SDS011;21385;50.878;8.050;2023-04-16T11:22:54;13.48;;;8.07;;
35257;SDS011;21385;50.878;8.050;2023-04-16T11:25:24;7.65;;;6.90;;
35257;SDS011;21385;50.878;8.050;2023-04-16T11:27:53;9.13;;;7.45;;
35257;SDS011;21385;50.878;8.050;2023-04-16T11:30:31;8.10;;;6.85;;
35257;SDS011;21385;50.878;8.050;2023-04-16T11:33:02;8.65;;;7.00;;
35257;SDS011;21385;50.878;8.050;2023-04-16T11:35:29;9.85;;;7.63;;
35257;SDS011;21385;50.878;8.050;2023-04-16T11:37:56;9.32;;;7.75;;
35257;SDS011;21385;50.878;8.050;2023-04-16T11:40:22;11.40;;;7.93;;
35257;SDS011;21385;50.878;8.050;2023-04-16T11:42:48;15.82;;;7.18;;
35257;SDS011;21385;50.878;8.050;2023-04-16T11:45:13;10.10;;;6.97;;
35257;SDS011;21385;50.878;8.050;2023-04-16T11:47:49;18.30;;;7.57;;
35257;SDS011;21385;50.878;8.050;2023-04-16T11:52:50;10.98;;;7.22;;
35257;SDS011;21385;50.878;8.050;2023-04-16T11:55:17;7.20;;;6.50;;
35257;SDS011;21385;50.878;8.050;2023-04-16T11:57:43;7.47;;;6.75;;
35257;SDS011;21385;50.878;8.050;2023-04-16T12:00:10;6.60;;;5.68;;
35257;SDS011;21385;50.878;8.050;2023-04-16T12:02:43;8.15;;;6.40;;
35257;SDS011;21385;50.878;8.050;2023-04-16T12:05:25;5.63;;;4.32;;
35257;SDS011;21385;50.878;8.050;2023-04-16T12:08:02;10.20;;;6.03;;
35257;SDS011;21385;50.878;8.050;2023-04-16T12:10:31;6.85;;;5.40;;
35257;SDS011;21385;50.878;8.050;2023-04-16T12:15:52;7.82;;;6.95;;
35257;SDS011;21385;50.878;8.050;2023-04-16T12:18:19;10.02;;;6.60;;
35257;SDS011;21385;50.878;8.050;2023-04-16T12:20:47;7.80;;;6.13;;
35257;SDS011;21385;50.878;8.050;2023-04-16T12:23:28;8.50;;;7.57;;
35257;SDS011;21385;50.878;8.050;2023-04-16T12:25:56;7.38;;;6.68;;
35257;SDS011;21385;50.878;8.050;2023-04-16T12:28:33;7.47;;;6.78;;
35257;SDS011;21385;50.878;8.050;2023-04-16T12:31:00;8.35;;;7.53;;
35257;SDS011;21385;50.878;8.050;2023-04-16T12:33:27;10.13;;;7.63;;
35257;SDS011;21385;50.878;8.050;2023-04-16T12:35:53;8.07;;;6.05;;
35257;SDS011;21385;50.878;8.050;2023-04-16T12:38:18;8.20;;;6.75;;
35257;SDS011;21385;50.878;8.050;2023-04-16T12:40:45;11.77;;;7.45;;
35257;SDS011;21385;50.878;8.050;2023-04-16T12:43:11;9.07;;;7.25;;
35257;SDS011;21385;50.878;8.050;2023-04-16T12:45:37;9.15;;;7.53;;
35257;SDS011;21385;50.878;8.050;2023-04-16T12:48:03;11.40;;;7.70;;
35257;SDS011;21385;50.878;8.050;2023-04-16T12:50:29;9.10;;;7.63;;
35257;SDS011;21385;50.878;8.050;2023-04-16T12:52:55;7.60;;;6.90;;
35257;SDS011;21385;50.878;8.050;2023-04-16T12:55:22;8.13;;;5.80;;
35257;SDS011;21385;50.878;8.050;2023-04-16T12:57:48;12.30;;;8.02;;
35257;SDS011;21385;50.878;8.050;2023-04-16T13:00:17;11.00;;;8.07;;
35257;SDS011;21385;50.878;8.050;2023-04-16T13:02:43;8.18;;;6.75;;
35257;SDS011;21385;50.878;8.050;2023-04-16T13:05:09;12.32;;;7.40;;
35257;SDS011;21385;50.878;8.050;2023-04-16T13:07:35;17.17;;;7.05;;
35257;SDS011;21385;50.878;8.050;2023-04-16T13:10:01;9.18;;;6.38;;
35257;SDS011;21385;50.878;8.050;2023-04-16T13:12:27;8.20;;;6.25;;
35257;SDS011;21385;50.878;8.050;2023-04-16T13:14:53;11.27;;;5.70;;
35257;SDS011;21385;50.878;8.050;2023-04-16T13:17:19;13.82;;;6.97;;
35257;SDS011;21385;50.878;8.050;2023-04-16T13:19:45;6.72;;;5.82;;
35257;SDS011;21385;50.878;8.050;2023-04-16T13:22:11;11.20;;;7.40;;
35257;SDS011;21385;50.878;8.050;2023-04-16T13:24:37;10.65;;;7.13;;
35257;SDS011;21385;50.878;8.050;2023-04-16T13:27:03;10.23;;;6.40;;
35257;SDS011;21385;50.878;8.050;2023-04-16T13:29:29;8.27;;;6.88;;
35257;SDS011;21385;50.878;8.050;2023-04-16T13:31:54;11.27;;;7.70;;
35257;SDS011;21385;50.878;8.050;2023-04-16T13:34:21;8.77;;;7.88;;
35257;SDS011;21385;50.878;8.050;2023-04-16T13:36:47;9.73;;;7.90;;
35257;SDS011;21385;50.878;8.050;2023-04-16T13:39:13;12.48;;;8.27;;
35257;SDS011;21385;50.878;8.050;2023-04-16T13:41:39;12.20;;;8.48;;
35257;SDS011;21385;50.878;8.050;2023-04-16T13:44:06;10.07;;;7.47;;
35257;SDS011;21385;50.878;8.050;2023-04-16T13:46:31;10.48;;;9.07;;
35257;SDS011;21385;50.878;8.050;2023-04-16T13:48:57;11.45;;;7.72;;
35257;SDS011;21385;50.878;8.050;2023-04-16T13:51:23;9.23;;;7.57;;
35257;SDS011;21385;50.878;8.050;2023-04-16T13:53:52;8.85;;;7.82;;
35257;SDS011;21385;50.878;8.050;2023-04-16T13:56:18;10.73;;;8.10;;
35257;SDS011;21385;50.878;8.050;2023-04-16T13:58:44;7.15;;;6.40;;
35257;SDS011;21385;50.878;8.050;2023-04-16T14:01:10;14.25;;;8.40;;
35257;SDS011;21385;50.878;8.050;2023-04-16T14:03:35;10.25;;;6.90;;
35257;SDS011;21385;50.878;8.050;2023-04-16T14:06:02;11.18;;;6.28;;
35257;SDS011;21385;50.878;8.050;2023-04-16T14:08:29;9.10;;;8.13;;
35257;SDS011;21385;50.878;8.050;2023-04-16T14:10:55;9.82;;;7.95;;
35257;SDS011;21385;50.878;8.050;2023-04-16T14:13:22;13.32;;;7.43;;
35257;SDS011;21385;50.878;8.050;2023-04-16T14:15:48;9.20;;;7.75;;
35257;SDS011;21385;50.878;8.050;2023-04-16T14:18:13;10.25;;;7.78;;
35257;SDS011;21385;50.878;8.050;2023-04-16T14:20:39;15.13;;;8.38;;
35257;SDS011;21385;50.878;8.050;2023-04-16T14:23:05;9.50;;;8.18;;
35257;SDS011;21385;50.878;8.050;2023-04-16T14:25:31;12.77;;;8.23;;
35257;SDS011;21385;50.878;8.050;2023-04-16T14:27:58;9.02;;;8.13;;
35257;SDS011;21385;50.878;8.050;2023-04-16T14:30:24;10.40;;;8.90;;
35257;SDS011;21385;50.878;8.050;2023-04-16T14:32:50;11.13;;;7.55;;
35257;SDS011;21385;50.878;8.050;2023-04-16T14:35:16;17.20;;;8.95;;
35257;SDS011;21385;50.878;8.050;2023-04-16T14:37:42;6.45;;;5.18;;
35257;SDS011;21385;50.878;8.050;2023-04-16T14:40:08;9.88;;;8.30;;
35257;SDS011;21385;50.878;8.050;2023-04-16T14:42:35;11.98;;;9.82;;
35257;SDS011;21385;50.878;8.050;2023-04-16T14:45:01;8.73;;;7.82;;
35257;SDS011;21385;50.878;8.050;2023-04-16T14:47:30;10.50;;;8.32;;
35257;SDS011;21385;50.878;8.050;2023-04-16T14:49:59;9.05;;;8.15;;
35257;SDS011;21385;50.878;8.050;2023-04-16T14:52:25;10.85;;;8.50;;
35257;SDS011;21385;50.878;8.050;2023-04-16T14:54:51;13.23;;;9.50;;
35257;SDS011;21385;50.878;8.050;2023-04-16T14:57:19;10.30;;;9.30;;
35257;SDS011;21385;50.878;8.050;2023-04-16T14:59:45;14.13;;;10.10;;
35257;SDS011;21385;50.878;8.050;2023-04-16T15:02:10;9.40;;;8.43;;